Time;durP1;ratioP1;P1;durP2;ratioP2;P2;SDS_P1;SDS_P2;PMS_P1;PMS_P2;Temp;Humidity;BMP_temperature;BMP_pressure;BME280_temperature;BME280_humidity;BME280_pressure;Samples;Min_cycle;Max_cycle;Signal;HPM_P1;HPM_P2
2022/04/11 00:02:24;;;;;;;6.72;3.15;;;;;;;7.48;48.96;100169.94;4472402;32;32993;-77
2022/04/11 00:04:52;;;;;;;5.95;2.55;;;;;;;7.61;48.48;100172.94;4472760;32;34083;-77
2022/04/11 00:07:19;;;;;;;5.40;2.83;;;;;;;7.39;49.00;100174.56;4459501;32;32332;-77
2022/04/11 00:09:49;;;;;;;6.03;2.70;;;;;;;7.43;48.94;100175.06;4486549;32;34512;-77
2022/04/11 00:12:17;;;;;;;5.87;2.83;;;;;;;7.41;48.87;100174.41;4486437;32;34832;-77
2022/04/11 00:14:46;;;;;;;7.60;3.00;;;;;;;7.44;48.86;100163.97;4486516;32;33887;-77
2022/04/11 00:17:13;;;;;;;5.53;2.67;;;;;;;7.48;48.88;100169.94;4472608;32;33420;-77
2022/04/11 00:19:41;;;;;;;6.30;3.03;;;;;;;7.48;48.89;100184.44;4472576;32;35163;-77
2022/04/11 00:22:14;;;;;;;6.78;2.95;;;;;;;7.50;48.64;100176.06;4486600;32;34463;-77
2022/04/11 00:24:45;;;;;;;7.12;3.30;;;;;;;7.52;48.53;100180.31;4472503;32;33213;-77
2022/04/11 00:27:12;;;;;;;5.75;2.83;;;;;;;7.56;48.31;100180.81;4472347;32;34499;-77
2022/04/11 00:29:42;;;;;;;5.80;3.03;;;;;;;7.58;48.38;100182.34;4459357;32;33081;-76
2022/04/11 00:32:10;;;;;;;4.62;2.78;;;;;;;7.48;48.49;100175.41;4459888;32;33888;-77
2022/04/11 00:34:40;;;;;;;6.57;2.92;;;;;;;7.23;49.38;100191.00;4459167;32;31821;-76
2022/04/11 00:37:08;;;;;;;7.22;3.55;;;;;;;7.06;49.84;100194.84;4459631;32;32316;-77
2022/04/11 00:39:37;;;;;;;5.45;3.30;;;;;;;7.16;49.62;100193.59;4459655;32;35345;-77
2022/04/11 00:42:15;;;;;;;5.45;2.62;;;;;;;7.12;49.65;100194.13;4459610;32;33916;-77
2022/04/11 00:44:43;;;;;;;8.68;3.33;;;;;;;7.04;49.86;100194.16;4472963;32;33293;-77
2022/04/11 00:47:11;;;;;;;5.40;2.90;;;;;;;7.29;49.27;100193.03;4459299;32;32343;-77
2022/04/11 00:49:41;;;;;;;5.97;2.90;;;;;;;7.24;49.44;100189.97;4472262;32;34599;-77
2022/04/11 00:52:09;;;;;;;6.18;3.03;;;;;;;7.07;49.83;100202.84;4459306;32;34748;-77
2022/04/11 00:54:40;;;;;;;6.97;3.08;;;;;;;7.02;49.97;100198.94;4472236;32;33361;-77
2022/04/11 00:57:09;;;;;;;5.43;3.05;;;;;;;7.07;49.87;100202.00;4472181;32;33394;-77
2022/04/11 00:59:40;;;;;;;5.72;3.40;;;;;;;7.05;49.72;100193.97;4472226;32;34382;-77
2022/04/11 01:02:07;;;;;;;6.05;3.00;;;;;;;6.97;49.94;100207.63;4486443;32;33815;-77
2022/04/11 01:04:35;;;;;;;5.32;2.87;;;;;;;7.08;49.79;100206.44;4458929;32;32809;-76
2022/04/11 01:07:08;;;;;;;6.07;3.10;;;;;;;7.31;49.05;100201.06;4485551;32;33585;-77
2022/04/11 01:09:35;;;;;;;5.85;2.83;;;;;;;6.97;49.71;100201.34;4472063;32;34364;-76
2022/04/11 01:12:03;;;;;;;9.20;3.10;;;;;;;7.07;49.58;100204.72;4471967;32;34092;-77
2022/04/11 01:14:31;;;;;;;5.87;3.62;;;;;;;7.03;49.73;100212.41;4471935;32;34099;-77
2022/04/11 01:17:01;;;;;;;8.98;2.95;;;;;;;7.08;49.54;100188.19;4459079;32;33176;-77
2022/04/11 01:19:29;;;;;;;6.37;2.92;;;;;;;7.03;49.62;100195.19;4459579;32;34315;-77
2022/04/11 01:21:56;;;;;;;7.70;2.83;;;;;;;7.04;49.64;100203.19;4471963;32;34683;-77
2022/04/11 01:24:27;;;;;;;5.93;2.87;;;;;;;7.12;49.19;100188.69;4486431;32;33389;-77
2022/04/11 01:26:57;;;;;;;6.28;3.33;;;;;;;6.94;49.85;100203.37;4459788;32;34486;-77
2022/04/11 01:29:31;;;;;;;6.72;2.87;;;;;;;6.71;50.50;100207.84;4472145;32;34289;-76
2022/04/11 01:31:58;;;;;;;4.40;2.85;;;;;;;7.07;49.40;100208.31;4471788;32;33147;-77
2022/04/11 01:34:26;;;;;;;6.47;2.90;;;;;;;7.03;49.74;100217.00;4485999;32;33186;-77
2022/04/11 01:36:53;;;;;;;5.97;2.97;;;;;;;6.81;50.23;100216.69;4458943;32;33254;-77
2022/04/11 01:39:24;;;;;;;6.18;2.90;;;;;;;6.92;50.00;100220.94;4458829;32;33107;-78
2022/04/11 01:41:52;;;;;;;7.07;3.10;;;;;;;6.91;49.96;100224.69;4471886;32;34702;-77
2022/04/11 01:44:20;;;;;;;5.93;3.35;;;;;;;6.65;50.83;100226.75;4458890;32;32997;-78
2022/04/11 01:46:50;;;;;;;7.35;3.40;;;;;;;6.88;50.15;100228.62;4471809;32;34476;-76
2022/04/11 01:49:18;;;;;;;8.50;3.40;;;;;;;6.91;50.00;100231.00;4472074;32;35421;-76
2022/04/11 01:51:46;;;;;;;6.43;2.92;;;;;;;7.02;49.65;100223.50;4471814;32;33988;-77
2022/04/11 01:54:16;;;;;;;6.43;3.22;;;;;;;6.93;49.90;100234.41;4471850;32;33987;-76
2022/04/11 01:56:47;;;;;;;6.43;3.08;;;;;;;6.92;50.05;100234.59;4472178;32;33655;-76
2022/04/11 01:59:16;;;;;;;6.95;3.62;;;;;;;6.93;50.00;100237.16;4471724;32;34675;-77
2022/04/11 02:01:45;;;;;;;5.57;3.58;;;;;;;7.01;49.73;100227.25;4471974;32;34122;-77
2022/04/11 02:04:13;;;;;;;6.32;3.33;;;;;;;7.07;49.63;100238.31;4470934;32;33987;-77
2022/04/11 02:06:40;;;;;;;5.45;3.45;;;;;;;7.01;49.79;100239.03;4458946;32;33870;-77
2022/04/11 02:09:10;;;;;;;6.07;3.17;;;;;;;7.04;49.88;100235.09;4471744;32;34294;-77
2022/04/11 02:11:38;;;;;;;8.18;3.75;;;;;;;6.99;49.94;100238.34;4471959;32;34396;-77
2022/04/11 02:14:07;;;;;;;7.53;3.50;;;;;;;7.01;50.06;100235.44;4459191;32;33429;-77
2022/04/11 02:16:35;;;;;;;8.27;3.62;;;;;;;7.09;49.98;100239.00;4458633;32;33224;-76
2022/04/11 02:19:03;;;;;;;5.55;3.20;;;;;;;6.98;50.20;100243.97;4471851;32;34630;-77
2022/04/11 02:21:31;;;;;;;7.35;4.10;;;;;;;6.92;50.43;100240.03;4471565;32;33727;-77
2022/04/11 02:23:59;;;;;;;6.95;4.12;;;;;;;7.08;49.96;100247.37;4471493;32;34115;-77
2022/04/11 02:26:27;;;;;;;8.07;3.58;;;;;;;6.94;50.18;100252.50;4459015;32;33643;-78
2022/04/11 02:28:54;;;;;;;7.20;3.75;;;;;;;6.55;50.57;100246.00;4471807;32;33940;-77
2022/04/11 02:31:22;;;;;;;9.30;3.78;;;;;;;6.61;50.82;100258.97;4471192;32;32411;-77
2022/04/11 02:33:50;;;;;;;7.05;3.50;;;;;;;6.54;51.16;100252.47;4471390;32;31992;-77
2022/04/11 02:36:18;;;;;;;6.30;3.47;;;;;;;6.37;51.47;100258.97;4458476;32;32209;-77
2022/04/11 02:38:46;;;;;;;7.95;3.10;;;;;;;6.60;51.12;100260.84;4471443;32;34416;-77
2022/04/11 02:41:14;;;;;;;7.85;3.47;;;;;;;6.36;51.65;100257.25;4471399;32;33892;-76
2022/04/11 02:43:44;;;;;;;6.65;3.30;;;;;;;6.55;51.16;100251.47;4458864;32;33256;-77
2022/04/11 02:46:15;;;;;;;6.03;3.03;;;;;;;6.60;50.93;100255.38;4471163;32;33215;-76
2022/04/11 02:48:43;;;;;;;5.65;3.30;;;;;;;6.31;51.57;100265.09;4471334;32;34512;-76
2022/04/11 02:51:11;;;;;;;5.55;3.20;;;;;;;6.65;51.06;100262.22;4485383;32;33806;-77
2022/04/11 02:53:44;;;;;;;7.55;3.05;;;;;;;6.48;51.28;100261.37;4471213;32;33243;-76
2022/04/11 02:56:15;;;;;;;6.10;3.00;;;;;;;6.25;51.96;100264.72;4470955;32;32675;-77
2022/04/11 02:58:43;;;;;;;6.62;3.45;;;;;;;6.47;51.53;100265.97;4458400;32;34328;-76
2022/04/11 03:01:10;;;;;;;6.05;3.17;;;;;;;6.15;52.21;100266.75;4485490;32;33862;-77
2022/04/11 03:03:41;;;;;;;5.65;2.95;;;;;;;6.30;52.32;100268.84;4471151;32;33261;-77
2022/04/11 03:06:11;;;;;;;5.95;3.53;;;;;;;6.54;51.58;100266.97;4485398;32;33871;-76
2022/04/11 03:08:39;;;;;;;7.15;3.25;;;;;;;6.02;52.74;100276.41;4471299;32;35133;-76
2022/04/11 03:11:10;;;;;;;6.25;3.30;;;;;;;5.67;53.66;100272.88;4470813;32;32338;-77
2022/04/11 03:13:44;;;;;;;6.47;3.35;;;;;;;5.62;53.89;100269.78;4471036;32;33266;-77
2022/04/11 03:16:11;;;;;;;6.43;3.62;;;;;;;5.73;53.76;100276.81;4485213;32;33740;-77
2022/04/11 03:18:43;;;;;;;5.95;3.37;;;;;;;5.98;53.15;100281.34;4472660;32;32913;-76
2022/04/11 03:21:11;;;;;;;14.05;3.45;;;;;;;6.11;52.83;100279.00;4472582;32;34537;-77
2022/04/11 03:23:39;;;;;;;7.15;3.10;;;;;;;6.12;52.88;100274.41;4473259;32;33504;-76
2022/04/11 03:26:09;;;;;;;9.23;4.00;;;;;;;6.19;52.61;100273.56;4472824;32;33617;-76
2022/04/11 03:28:38;;;;;;;5.72;3.40;;;;;;;6.21;52.34;100282.44;4472583;32;34506;-77
2022/04/11 03:31:06;;;;;;;6.65;3.72;;;;;;;6.16;52.54;100283.97;4473189;32;34091;-76
2022/04/11 03:33:34;;;;;;;7.18;3.45;;;;;;;6.25;52.23;100282.97;4472899;32;33525;-76
2022/04/11 03:36:03;;;;;;;6.37;3.70;;;;;;;5.63;53.94;100294.13;4472982;32;34016;-77
2022/04/11 03:38:31;;;;;;;6.72;3.30;;;;;;;5.95;53.14;100290.69;4459799;32;32821;-77
2022/04/11 03:40:59;;;;;;;7.00;3.45;;;;;;;6.05;53.02;100293.28;4460263;32;34030;-77
2022/04/11 03:43:30;;;;;;;7.80;3.97;;;;;;;6.26;52.26;100290.97;4487073;32;31634;-77
2022/04/11 03:45:58;;;;;;;8.15;3.80;;;;;;;5.97;53.26;100298.69;4459605;32;32496;-77
2022/04/11 03:48:28;;;;;;;7.90;3.80;;;;;;;5.67;53.87;100300.09;4472767;32;34419;-77
2022/04/11 03:50:56;;;;;;;6.35;3.47;;;;;;;5.90;53.45;100297.66;4460184;32;33909;-77
2022/04/11 03:53:25;;;;;;;6.72;3.90;;;;;;;6.02;53.27;100309.09;4460350;32;33169;-77
2022/04/11 03:55:53;;;;;;;6.03;3.40;;;;;;;5.97;53.37;100306.88;4460145;32;33710;-77
2022/04/11 03:58:23;;;;;;;8.48;3.70;;;;;;;5.93;53.65;100311.81;4472917;32;35075;-78
2022/04/11 04:00:54;;;;;;;7.10;3.62;;;;;;;5.94;53.61;100310.78;4460056;32;33904;-77
2022/04/11 04:03:22;;;;;;;7.57;3.65;;;;;;;6.04;53.41;100320.69;4472695;32;33175;-77
2022/04/11 04:05:53;;;;;;;7.15;3.65;;;;;;;6.00;53.62;100314.72;4486590;32;33669;-77
2022/04/11 04:08:21;;;;;;;7.82;3.80;;;;;;;6.08;52.93;100313.91;4459781;32;32660;-77
2022/04/11 04:10:52;;;;;;;7.95;3.50;;;;;;;6.07;53.16;100318.50;4471772;32;34843;-78
2022/04/11 04:13:20;;;;;;;8.85;4.28;;;;;;;5.81;54.12;100323.16;4472939;32;34150;-77
2022/04/11 04:15:49;;;;;;;7.40;3.78;;;;;;;5.78;54.29;100323.47;4472394;32;32080;-76
2022/04/11 04:18:17;;;;;;;7.55;4.07;;;;;;;5.89;54.07;100315.00;4486549;32;34317;-76
2022/04/11 04:20:45;;;;;;;8.30;4.85;;;;;;;5.95;53.78;100325.25;4471684;32;33926;-76
2022/04/11 04:23:13;;;;;;;7.87;4.20;;;;;;;6.05;53.62;100325.97;4472501;32;33215;-76
2022/04/11 04:25:43;;;;;;;10.60;3.90;;;;;;;6.23;52.93;100325.88;4459559;32;33918;-77
2022/04/11 04:28:19;;;;;;;7.82;4.28;;;;;;;6.09;53.58;100331.97;4472032;32;34394;-76
2022/04/11 04:30:53;;;;;;;6.00;3.35;;;;;;;5.94;54.31;100339.91;4472291;32;33413;-76
2022/04/11 04:33:26;;;;;;;7.85;3.65;;;;;;;6.07;53.76;100337.56;4459597;32;33280;-74
2022/04/11 04:35:57;;;;;;;8.80;3.72;;;;;;;6.07;54.92;100340.28;4486423;32;33781;-76
2022/04/11 04:38:28;;;;;;;10.55;3.95;;;;;;;6.32;55.27;100337.66;4486506;32;34323;-76
2022/04/11 04:40:57;;;;;;;7.37;3.62;;;;;;;6.11;54.47;100347.12;4459424;32;34031;-76
2022/04/11 04:43:33;;;;;;;8.70;4.37;;;;;;;6.26;53.83;100345.47;4459777;32;31985;-74
2022/04/11 04:46:04;;;;;;;7.20;4.10;;;;;;;6.37;53.67;100344.31;4485962;32;34414;-73
2022/04/11 04:48:39;;;;;;;13.40;7.20;;;;;;;6.46;54.76;100350.66;4459807;32;34390;-76
2022/04/11 04:51:08;;;;;;;14.73;5.72;;;;;;;6.34;55.37;100354.72;4472126;32;32526;-75
2022/04/11 04:53:41;;;;;;;9.88;4.50;;;;;;;6.35;54.38;100356.41;4486117;32;33338;-75
2022/04/11 04:56:09;;;;;;;7.80;3.95;;;;;;;6.12;54.73;100361.59;4472631;32;33670;-75
2022/04/11 04:58:37;;;;;;;5.97;3.47;;;;;;;6.35;54.33;100359.13;4471897;32;34014;-75
2022/04/11 05:01:14;;;;;;;7.20;3.70;;;;;;;6.44;54.24;100363.59;4471140;32;32729;-75
2022/04/11 05:03:45;;;;;;;6.85;3.50;;;;;;;6.49;54.17;100353.06;4472515;32;34287;-76
2022/04/11 05:06:16;;;;;;;10.73;4.30;;;;;;;6.54;56.13;100361.56;4486310;32;34427;-76
2022/04/11 05:08:44;;;;;;;7.22;4.18;;;;;;;6.56;54.22;100360.38;4475070;31;34411;-76
2022/04/11 05:11:13;;;;;;;7.40;3.53;;;;;;;7.05;54.37;100356.88;4499956;31;34579;-76
2022/04/11 05:13:41;;;;;;;8.45;3.90;;;;;;;6.69;53.28;100361.75;4486922;31;32622;-74
2022/04/11 05:16:09;;;;;;;8.48;4.85;;;;;;;7.05;52.99;100359.59;4501548;31;33664;-75
2022/04/11 05:18:36;;;;;;;7.72;4.95;;;;;;;7.18;52.32;100360.78;4501746;31;34279;-74
2022/04/11 05:21:06;;;;;;;8.45;3.87;;;;;;;7.16;52.90;100359.22;4487064;31;34855;-74
2022/04/11 05:23:38;;;;;;;10.05;4.65;;;;;;;7.34;52.03;100364.53;4501011;31;33209;-75
2022/04/11 05:26:07;;;;;;;7.60;3.75;;;;;;;7.38;51.58;100358.56;4473850;31;33647;-75
2022/04/11 05:28:38;;;;;;;8.55;3.90;;;;;;;7.63;51.14;100361.25;4474186;31;33031;-74
2022/04/11 05:31:08;;;;;;;11.00;3.80;;;;;;;7.78;51.10;100364.97;4501529;31;34497;-73
2022/04/11 05:33:38;;;;;;;16.70;10.15;;;;;;;7.94;50.38;100365.75;4486797;31;33590;-75
2022/04/11 05:36:11;;;;;;;10.55;6.07;;;;;;;7.91;50.52;100357.06;4474705;31;34630;-75
2022/04/11 05:38:45;;;;;;;10.77;4.68;;;;;;;8.25;49.79;100354.88;4487538;31;35101;-74
2022/04/11 05:41:16;;;;;;;8.73;4.00;;;;;;;8.30;48.17;100364.44;4473685;31;33502;-75
2022/04/11 05:43:46;;;;;;;7.18;3.20;;;;;;;8.38;48.19;100370.75;4474854;31;34014;-75
2022/04/11 05:46:17;;;;;;;7.97;3.35;;;;;;;8.77;47.51;100367.97;4487687;31;32991;-75
2022/04/11 05:48:54;;;;;;;6.37;3.65;;;;;;;8.76;47.26;100371.72;4501901;31;34822;-75
2022/04/11 05:51:27;;;;;;;8.27;4.17;;;;;;;9.22;46.88;100369.00;4487542;31;33943;-75
2022/04/11 05:53:59;;;;;;;6.87;3.05;;;;;;;8.72;46.42;100370.38;4475071;31;32023;-75
2022/04/11 05:56:29;;;;;;;5.85;2.97;;;;;;;9.93;51.18;100366.75;4482373;32;33280;-75
2022/04/11 05:58:57;;;;;;;8.18;2.97;;;;;;;10.13;44.87;100370.66;4471506;32;33012;-75
2022/04/11 06:01:40;;;;;;;7.35;3.10;;;;;;;10.31;45.33;100371.16;4485472;32;33644;-75
2022/04/11 06:04:13;;;;;;;6.78;3.80;;;;;;;10.25;44.88;100368.31;4471578;32;32754;-75
2022/04/11 06:06:46;;;;;;;5.68;2.87;;;;;;;9.64;44.23;100365.72;4472121;32;31773;-75
2022/04/11 06:09:19;;;;;;;6.47;2.92;;;;;;;9.91;43.96;100364.19;4484873;32;35317;-75
2022/04/11 06:11:47;;;;;;;8.57;2.97;;;;;;;10.47;43.56;100359.06;4485722;32;33924;-75
2022/04/11 06:14:36;;;;;;;7.05;2.83;;;;;;;10.34;42.36;100353.44;4485898;32;32531;-75
2022/04/11 06:17:06;;;;;;;6.82;3.30;;;;;;;10.18;42.89;100354.47;4484281;32;34765;-75
2022/04/11 06:19:37;;;;;;;8.05;2.83;;;;;;;10.52;43.31;100359.34;4471458;32;33010;-75
2022/04/11 06:22:10;;;;;;;6.35;2.75;;;;;;;9.85;43.47;100354.84;4484750;32;34130;-75
2022/04/11 06:24:50;;;;;;;6.28;2.90;;;;;;;9.89;42.86;100355.31;4472706;32;31786;-75
2022/04/11 06:27:21;;;;;;;7.47;2.87;;;;;;;10.59;42.31;100354.81;4484652;32;35145;-74
2022/04/11 06:29:56;;;;;;;8.82;3.28;;;;;;;11.09;41.20;100344.75;4484243;32;35110;-75
2022/04/11 06:32:31;;;;;;;6.28;2.97;;;;;;;11.54;41.75;100349.84;4484678;32;34492;-75
2022/04/11 06:34:59;;;;;;;8.07;3.33;;;;;;;11.84;41.41;100346.91;4484433;32;34119;-74
2022/04/11 06:37:32;;;;;;;7.68;3.10;;;;;;;12.15;40.46;100343.72;4485381;32;34508;-75
2022/04/11 06:40:02;;;;;;;6.55;3.40;;;;;;;12.09;39.12;100350.03;4484243;32;34468;-75
2022/04/11 06:42:37;;;;;;;7.37;2.85;;;;;;;12.34;40.24;100347.62;4471836;32;32304;-75
2022/04/11 06:45:14;;;;;;;6.07;2.80;;;;;;;12.60;39.47;100347.72;4484481;32;34334;-74
2022/04/11 06:47:49;;;;;;;5.70;2.90;;;;;;;13.02;38.73;100349.31;4484437;32;33757;-75
2022/04/11 06:54:56;;;;;;;9.50;4.32;;;;;;;12.75;37.93;100355.81;4485291;32;33650;-75
2022/04/11 06:59:12;;;;;;;7.50;3.50;;;;;;;13.66;36.63;100356.16;4481812;32;33359;-75
2022/04/11 07:10:20;;;;;;;12.93;6.57;;;;;;;13.29;36.95;100372.28;4362692;32;33441;-75
2022/04/11 07:21:11;;;;;;;5.35;2.75;;;;;;;13.31;36.31;100370.16;4372839;32;35263;-75
2022/04/11 07:28:07;;;;;;;8.02;2.83;;;;;;;13.34;37.12;100369.75;4375057;32;34031;-75
2022/04/11 07:31:12;;;;;;;10.52;5.75;;;;;;;13.30;37.19;100362.97;4362613;32;32220;-74
2022/04/11 07:34:03;;;;;;;10.35;5.22;;;;;;;13.62;38.32;100365.94;4362534;32;34222;-82
2022/04/11 07:36:32;;;;;;;8.40;3.97;;;;;;;13.70;36.79;100362.94;4425468;32;34485;-74
2022/04/11 07:39:26;;;;;;;7.65;3.12;;;;;;;14.02;37.86;100363.97;4469259;32;34002;-74
2022/04/11 07:41:57;;;;;;;6.50;2.83;;;;;;;14.01;35.96;100365.91;4470344;32;34546;-75
2022/04/11 07:44:30;;;;;;;6.70;2.65;;;;;;;13.40;36.51;100368.06;4470447;32;34492;-74
2022/04/11 07:46:58;;;;;;;5.93;2.80;;;;;;;13.32;36.84;100371.00;4470241;32;34014;-74
2022/04/11 07:49:25;;;;;;;8.25;2.67;;;;;;;13.83;36.41;100371.22;4484538;32;33300;-74
2022/04/11 07:51:53;;;;;;;5.75;2.78;;;;;;;14.00;36.92;100368.87;4457182;32;32310;-76
2022/04/11 07:54:24;;;;;;;7.22;3.22;;;;;;;14.41;35.58;100360.25;4484228;32;34408;-75
2022/04/11 07:56:51;;;;;;;7.68;2.85;;;;;;;14.28;36.31;100365.84;4470152;32;32341;-75
2022/04/11 07:59:37;;;;;;;8.32;2.87;;;;;;;14.49;35.16;100358.13;4470244;32;33318;-75
2022/04/11 08:02:13;;;;;;;6.50;3.20;;;;;;;14.78;35.81;100355.87;4469949;32;34376;-75
2022/04/11 08:04:44;;;;;;;6.45;2.60;;;;;;;14.59;34.64;100362.34;4472832;32;35119;-74
2022/04/11 08:07:15;;;;;;;6.53;2.87;;;;;;;14.89;34.55;100363.50;4472510;32;34397;-74
2022/04/11 08:09:42;;;;;;;5.82;3.03;;;;;;;15.24;34.41;100361.12;4474273;31;33275;-75
2022/04/11 08:12:10;;;;;;;8.00;2.90;;;;;;;14.43;34.10;100363.69;4474161;31;33976;-75
2022/04/11 08:14:40;;;;;;;6.28;2.85;;;;;;;14.91;34.76;100363.28;4472759;32;34047;-74
2022/04/11 08:17:08;;;;;;;11.48;6.62;;;;;;;15.35;34.83;100362.34;4472293;32;33988;-75
2022/04/11 08:19:36;;;;;;;8.95;4.65;;;;;;;15.48;34.01;100360.31;4458331;32;33977;-74
2022/04/11 08:22:14;;;;;;;7.87;3.95;;;;;;;15.46;33.48;100353.31;4470621;32;33748;-74
2022/04/11 08:24:45;;;;;;;8.82;3.75;;;;;;;15.58;34.30;100356.25;4472462;32;34288;-74
2022/04/11 08:27:15;;;;;;;6.90;3.30;;;;;;;15.60;34.12;100360.44;4458895;32;32478;-74
2022/04/11 08:29:53;;;;;;;5.70;3.10;;;;;;;15.15;33.44;100368.00;4472359;32;31697;-74
2022/04/11 08:32:23;;;;;;;7.18;2.70;;;;;;;15.36;33.06;100356.59;4459764;32;33748;-74
2022/04/11 08:34:58;;;;;;;7.55;3.80;;;;;;;14.40;33.62;100370.44;4459733;32;34275;-75
2022/04/11 08:37:28;;;;;;;11.88;5.22;;;;;;;15.05;34.24;100367.62;4472611;32;34123;-74
2022/04/11 08:39:58;;;;;;;5.55;2.90;;;;;;;15.28;33.60;100362.37;4487597;31;34358;-78
2022/04/11 08:42:34;;;;;;;7.57;3.03;;;;;;;15.54;32.56;100361.34;4475269;31;33721;-75
2022/04/11 08:45:08;;;;;;;10.43;5.85;;;;;;;16.07;32.21;100355.34;4475370;31;33849;-75
2022/04/11 08:47:38;;;;;;;12.25;6.47;;;;;;;15.53;32.17;100358.81;4487909;31;34003;-75
2022/04/11 08:50:10;;;;;;;7.60;3.72;;;;;;;15.67;32.32;100349.31;4474748;31;32001;-75
2022/04/11 08:52:43;;;;;;;5.80;3.00;;;;;;;16.36;32.07;100343.50;4474639;31;33246;-75
2022/04/11 08:55:16;;;;;;;9.02;3.22;;;;;;;16.09;31.66;100351.28;4487454;31;33927;-74
2022/04/11 08:57:46;;;;;;;25.50;15.40;;;;;;;15.39;31.61;100347.84;4488392;31;34011;-75
2022/04/11 09:00:22;;;;;;;8.40;4.43;;;;;;;16.18;31.99;100343.50;4501950;31;33401;-75
2022/04/11 09:02:50;;;;;;;5.37;2.62;;;;;;;16.22;30.73;100346.66;4376690;31;3186723;-75
2022/04/11 09:05:23;;;;;;;7.40;2.90;;;;;;;16.12;31.38;100347.19;4487591;31;34242;-75
2022/04/11 09:07:56;;;;;;;5.05;2.50;;;;;;;15.87;31.42;100347.22;4487665;31;34153;-74
2022/04/11 09:10:32;;;;;;;6.28;2.47;;;;;;;16.34;31.01;100342.88;4487680;31;33505;-75
2022/04/11 09:13:04;;;;;;;5.95;3.00;;;;;;;16.45;29.92;100338.50;4474611;31;31905;-74
2022/04/11 09:15:40;;;;;;;6.70;2.60;;;;;;;16.94;30.81;100342.13;4474304;31;35230;-75
2022/04/11 09:18:08;;;;;;;8.53;5.60;;;;;;;17.05;30.21;100335.78;4474579;31;32455;-75
2022/04/11 09:20:41;;;;;;;13.52;7.70;;;;;;;16.92;29.97;100335.97;4487694;31;33177;-75
2022/04/11 09:23:19;;;;;;;4.72;2.60;;;;;;;15.38;30.64;100340.62;4474625;31;34537;-74
2022/04/11 09:25:49;;;;;;;6.62;2.60;;;;;;;15.36;32.01;100339.13;4474572;31;32974;-75
2022/04/11 09:28:20;;;;;;;5.97;2.78;;;;;;;16.09;31.32;100331.03;4487524;31;33780;-75
2022/04/11 09:30:49;;;;;;;9.68;3.05;;;;;;;15.77;30.81;100336.69;4487458;31;32031;-74
2022/04/11 09:33:20;;;;;;;6.18;3.00;;;;;;;14.25;33.37;100345.03;4488000;31;33999;-74
2022/04/11 09:35:50;;;;;;;5.35;2.25;;;;;;;15.59;33.32;100346.88;4474532;31;34463;-74
2022/04/11 09:38:20;;;;;;;9.20;2.75;;;;;;;15.61;30.96;100344.69;4487529;31;33942;-75
2022/04/11 09:40:54;;;;;;;6.18;2.62;;;;;;;15.76;31.38;100331.38;4501506;31;33197;-75
2022/04/11 09:43:30;;;;;;;7.57;3.92;;;;;;;16.38;32.00;100321.94;4488028;31;33758;-75
2022/04/11 09:46:04;;;;;;;7.95;3.28;;;;;;;17.01;30.78;100324.31;4487585;31;34648;-75
2022/04/11 09:48:36;;;;;;;5.00;2.90;;;;;;;16.32;30.37;100322.03;4501771;31;33833;-74
2022/04/11 09:51:12;;;;;;;4.87;2.75;;;;;;;16.89;28.83;100326.25;4486558;31;33114;-75
2022/04/11 09:53:46;;;;;;;6.97;3.00;;;;;;;16.99;29.81;100328.41;4474448;31;32373;-75
2022/04/11 09:56:16;;;;;;;7.82;2.92;;;;;;;17.04;30.28;100337.72;4474882;31;33814;-75
2022/04/11 09:58:47;;;;;;;5.78;3.08;;;;;;;15.64;30.87;100338.72;4474988;31;32872;-76
2022/04/11 10:01:15;;;;;;;6.00;2.62;;;;;;;14.44;32.41;100341.38;4474576;31;34075;-75
2022/04/11 10:03:46;;;;;;;5.32;3.00;;;;;;;14.63;32.17;100347.03;4487765;31;33640;-76
2022/04/11 10:06:14;;;;;;;5.40;3.15;;;;;;;14.42;33.07;100342.66;4474242;31;34145;-74
2022/04/11 10:08:45;;;;;;;4.95;2.90;;;;;;;14.39;32.89;100345.81;4473950;31;32460;-75
2022/04/11 10:11:18;;;;;;;4.65;2.70;;;;;;;14.39;33.29;100343.91;4474408;31;32655;-74
2022/04/11 10:13:47;;;;;;;6.60;3.20;;;;;;;13.56;34.24;100337.31;4474176;31;33902;-74
2022/04/11 10:16:20;;;;;;;5.93;2.92;;;;;;;13.77;34.53;100327.94;4487468;31;34497;-74
2022/04/11 10:18:51;;;;;;;7.47;3.00;;;;;;;13.68;34.39;100334.72;4474493;31;33506;-74
2022/04/11 10:21:18;;;;;;;6.10;2.83;;;;;;;13.35;34.41;100343.88;4501638;31;34231;-74
2022/04/11 10:24:04;;;;;;;6.28;2.22;;;;;;;13.89;33.44;100337.25;4488347;31;34237;-74
2022/04/11 10:26:44;;;;;;;5.90;2.70;;;;;;;13.69;30.68;100345.56;4500816;31;35181;-74
2022/04/11 10:29:34;;;;;;;4.12;2.35;;;;;;;13.23;32.62;100345.56;4474182;31;32466;-74
2022/04/11 10:32:11;;;;;;;4.37;1.92;;;;;;;13.13;32.04;100350.59;4474204;31;31639;-74
2022/04/11 10:34:47;;;;;;;;;;;;;;;14.04;31.80;100342.53;4501704;31;33936;-74
2022/04/11 10:37:17;;;;;;;4.68;1.85;;;;;;;14.01;30.97;100332.78;4501618;31;35716;-75
2022/04/11 10:39:48;;;;;;;3.60;1.95;;;;;;;14.97;28.96;100343.00;4487151;31;34040;-74
2022/04/11 10:42:24;;;;;;;14.15;7.60;;;;;;;15.10;27.72;100331.87;4501215;31;33470;-74
2022/04/11 10:44:53;;;;;;;5.85;2.60;;;;;;;15.60;26.99;100331.97;4487171;31;34558;-74
2022/04/11 10:47:26;;;;;;;4.18;2.10;;;;;;;15.82;26.76;100330.47;4487064;31;34337;-74
2022/04/11 10:49:54;;;;;;;3.50;1.85;;;;;;;16.32;25.81;100324.78;4473867;31;32282;-75
2022/04/11 10:52:33;;;;;;;4.25;2.05;;;;;;;16.20;26.61;100340.50;4501106;31;33324;-74
2022/04/11 10:55:07;;;;;;;3.85;1.62;;;;;;;15.47;26.74;100333.72;4486920;31;33841;-75
2022/04/11 10:57:39;;;;;;;3.87;2.12;;;;;;;15.41;27.79;100336.56;4473541;31;33929;-74
2022/04/11 11:00:13;;;;;;;9.63;5.43;;;;;;;14.96;26.97;100336.63;4486803;31;32422;-74
2022/04/11 11:02:50;;;;;;;23.40;12.82;;;;;;;14.70;27.26;100326.59;4501036;31;32916;-74
2022/04/11 11:05:36;;;;;;;6.00;3.10;;;;;;;15.02;27.97;100326.59;4500848;31;33629;-74
2022/04/11 11:08:13;;;;;;;5.57;2.22;;;;;;;15.10;28.24;100338.25;4486598;31;32921;-74
2022/04/11 11:10:57;;;;;;;5.20;2.35;;;;;;;15.23;26.44;100340.09;4501003;31;34534;-74
2022/04/11 11:13:43;;;;;;;4.22;2.40;;;;;;;15.32;26.69;100329.59;4473504;31;32004;-76
2022/04/11 11:16:11;;;;;;;;;;;;;;;16.05;25.72;100322.34;4501152;31;33821;-75
2022/04/11 11:18:51;;;;;;;9.35;4.35;;;;;;;16.81;25.38;100306.31;4500809;31;35527;-75
2022/04/11 11:21:31;;;;;;;10.20;6.30;;;;;;;16.26;26.09;100306.31;4500865;31;33642;-74
2022/04/11 11:24:01;;;;;;;6.87;3.35;;;;;;;17.10;26.36;100314.59;4486571;31;33454;-75
2022/04/11 11:26:49;;;;;;;5.03;2.45;;;;;;;17.69;24.91;100309.16;4486495;31;34025;-75
2022/04/11 11:29:25;;;;;;;5.93;2.78;;;;;;;17.83;25.09;100310.63;4486629;31;34171;-75
2022/04/11 11:31:59;;;;;;;4.32;2.37;;;;;;;17.33;24.25;100316.59;4487201;31;34569;-75
2022/04/11 11:34:30;;;;;;;6.15;2.47;;;;;;;17.62;25.89;100305.63;4473217;31;32877;-75
2022/04/11 11:37:06;;;;;;;4.75;2.40;;;;;;;16.96;24.11;100298.37;4473283;31;32222;-75
2022/04/11 11:39:39;;;;;;;6.15;2.15;;;;;;;17.33;24.03;100304.66;4486753;31;34459;-75
2022/04/11 11:42:18;;;;;;;5.05;2.80;;;;;;;16.70;23.95;100300.47;4488215;31;32506;-75
2022/04/11 11:44:50;;;;;;;6.60;3.58;;;;;;;16.94;23.80;100300.53;4475399;31;32691;-75
2022/04/11 11:47:29;;;;;;;12.18;6.85;;;;;;;16.17;24.02;100302.19;4475365;31;33903;-75
2022/04/11 11:50:07;;;;;;;10.00;4.95;;;;;;;16.16;24.13;100294.97;4475936;31;32689;-76
2022/04/11 11:52:54;;;;;;;5.57;2.90;;;;;;;16.89;24.09;100289.34;4488485;31;33982;-76
2022/04/11 11:55:21;;;;;;;5.05;2.80;;;;;;;16.75;24.43;100303.41;4488633;31;33522;-75
2022/04/11 11:58:10;;;;;;;5.43;2.60;;;;;;;16.99;24.98;100293.22;4475474;31;34562;-75
2022/04/11 12:00:38;;;;;;;5.45;2.60;;;;;;;16.85;24.93;100291.75;4470110;32;35173;-74
2022/04/11 12:06:12;;;;;;;5.43;2.87;;;;;;;15.81;26.42;100293.63;4486421;32;33514;-75
2022/04/11 12:09:03;;;;;;;7.05;3.87;;;;;;;15.18;26.73;100295.66;4485207;32;34856;-74
2022/04/11 12:11:31;;;;;;;19.05;12.37;;;;;;;16.62;25.69;100286.91;4485401;32;35388;-74
2022/04/11 12:14:07;;;;;;;22.42;14.87;;;;;;;17.21;24.22;100285.19;4485691;31;33908;-74
2022/04/11 12:16:36;;;;;;;5.10;2.80;;;;;;;17.37;26.68;100284.50;4485364;32;34119;-73
2022/04/11 12:19:05;;;;;;;6.00;2.97;;;;;;;17.56;25.38;100281.59;4485214;32;34631;-73
2022/04/11 12:21:40;;;;;;;4.95;2.50;;;;;;;17.74;24.63;100284.31;4485271;32;34549;-73